Time;durP1;ratioP1;P1;durP2;ratioP2;P2;SDS_P1;SDS_P2;PMS_P1;PMS_P2;Temp;Humidity;BMP_temperature;BMP_pressure;BME280_temperature;BME280_humidity;BME280_pressure;Samples;Min_cycle;Max_cycle;Signal;HPM_P1;HPM_P2
2021/06/05 10:50:21;;;;;;;6.18;4.38;;;;;;;;;;7084841;27;20165;-80
2021/06/05 10:53:57;;;;;;;4.60;4.03;;;;;;;;;;7070658;27;20035;-80
2021/06/05 10:57:23;;;;;;;9.57;4.25;;;;;;;;;;7093243;27;20366;-81
2021/06/05 11:00:49;;;;;;;11.75;5.35;;;;;;;;;;7089929;27;20047;-81
2021/06/05 11:04:31;;;;;;;6.03;4.38;;;;;;;;;;7093430;27;20042;-82
2021/06/05 11:08:14;;;;;;;5.50;4.63;;;;;;;;;;7072241;27;20047;-81
2021/06/05 11:11:38;;;;;;;9.85;5.00;;;;;;;;;;7076340;27;20043;-82
2021/06/05 11:14:58;;;;;;;12.15;6.32;;;;;;;;;;7079671;27;20526;-81
2021/06/05 11:18:25;;;;;;;11.90;5.40;;;;;;;;;;7089326;27;20044;-80
2021/06/05 11:21:56;;;;;;;5.43;4.35;;;;;;;;;;7076569;27;20046;-79
2021/06/05 11:25:16;;;;;;;6.28;4.70;;;;;;;;;;7078807;27;20043;-81
2021/06/05 11:28:39;;;;;;;5.82;4.50;;;;;;;;;;7093586;27;20038;-80
2021/06/05 11:32:41;;;;;;;6.25;5.00;;;;;;;;;;7075864;27;20051;-79
2021/06/05 11:36:33;;;;;;;6.32;4.90;;;;;;;;;;7083753;27;20054;-78
2021/06/05 11:39:58;;;;;;;9.18;4.95;;;;;;;;;;7096059;27;20043;-79
2021/06/05 11:43:23;;;;;;;9.50;4.65;;;;;;;;;;7101306;27;20051;-79
2021/06/05 11:46:46;;;;;;;10.88;5.10;;;;;;;;;;7078848;27;20047;-79
2021/06/05 11:50:10;;;;;;;15.23;4.95;;;;;;;;;;7100082;27;20066;-79
2021/06/05 11:53:36;;;;;;;11.43;5.38;;;;;;;;;;7101438;27;20422;-79
2021/06/05 11:56:59;;;;;;;67.38;7.68;;;;;;;;;;7079903;27;20050;-79
2021/06/05 12:00:34;;;;;;;21.65;4.60;;;;;;;;;;7060811;28;20079;-80
2021/06/05 12:04:04;;;;;;;16.25;4.68;;;;;;;;;;7059733;28;20043;-79
2021/06/05 12:07:34;;;;;;;23.85;4.63;;;;;;;;;;7057764;28;20047;-79
2021/06/05 12:10:56;;;;;;;8.20;4.50;;;;;;;;;;7076015;28;20130;-79
2021/06/05 12:18:09;;;;;;;14.52;4.60;;;;;;;;;;7071655;27;20079;-79
2021/06/05 12:21:33;;;;;;;10.75;5.45;;;;;;;;;;7048333;28;20035;-79
2021/06/05 12:24:53;;;;;;;5.05;4.25;;;;;;;;;;7068473;28;20035;-80
2021/06/05 12:28:22;;;;;;;9.75;4.60;;;;;;;;;;7069667;28;20055;-78
2021/06/05 12:31:43;;;;;;;7.15;4.28;;;;;;;;;;7166663;22;20056;-80
2021/06/05 12:35:22;;;;;;;8.63;4.80;;;;;;;;;;6991069;28;20188;-81
2021/06/05 12:38:44;;;;;;;5.78;5.18;;;;;;;;;;7026458;28;20052;-82
2021/06/05 12:42:06;;;;;;;5.72;3.75;;;;;;;;;;7022696;28;20130;-83
2021/06/05 12:45:27;;;;;;;11.25;4.55;;;;;;;;;;7007483;28;20048;-83
2021/06/05 12:48:51;;;;;;;7.50;5.32;;;;;;;;;;7005752;28;20083;-85
2021/06/05 12:52:16;;;;;;;14.90;4.97;;;;;;;;;;6989978;28;20192;-82
2021/06/05 12:55:44;;;;;;;13.73;4.70;;;;;;;;;;7022681;28;20545;-83
2021/06/05 12:59:08;;;;;;;8.37;4.33;;;;;;;;;;7021561;28;20142;-82
2021/06/05 13:02:34;;;;;;;10.07;4.65;;;;;;;;;;7023579;28;20482;-83
2021/06/05 13:06:03;;;;;;;13.73;4.32;;;;;;;;;;7025259;28;20359;-86
2021/06/05 13:09:39;;;;;;;5.65;3.92;;;;;;;;;;7019304;28;20044;-82
2021/06/05 13:13:10;;;;;;;7.30;5.10;;;;;;;;;;7025990;28;20048;-83
2021/06/05 13:16:31;;;;;;;31.63;4.78;;;;;;;;;;7025117;28;20397;-81
2021/06/05 13:20:07;;;;;;;13.63;3.90;;;;;;;;;;7026913;28;20044;-81
2021/06/05 13:23:38;;;;;;;12.40;4.20;;;;;;;;;;7005682;28;20048;-79
2021/06/05 13:27:15;;;;;;;9.45;4.00;;;;;;;;;;7013248;28;20126;-79
2021/06/05 13:30:49;;;;;;;13.30;4.03;;;;;;;;;;7025498;28;20036;-81
2021/06/05 13:34:17;;;;;;;16.65;4.40;;;;;;;;;;7005110;28;20060;-81
2021/06/05 13:37:59;;;;;;;17.40;4.63;;;;;;;;;;7021096;28;20465;-82
2021/06/05 13:41:20;;;;;;;16.60;4.10;;;;;;;;;;7006742;28;20055;-81
2021/06/05 13:44:41;;;;;;;12.68;4.22;;;;;;;;;;7025237;28;20079;-81
2021/06/05 13:48:05;;;;;;;13.77;4.68;;;;;;;;;;7006820;28;20048;-81
2021/06/05 13:51:27;;;;;;;8.38;3.83;;;;;;;;;;7025254;28;20039;-81
2021/06/05 13:54:48;;;;;;;10.77;4.00;;;;;;;;;;7006341;28;20431;-81
2021/06/05 13:58:09;;;;;;;9.65;3.90;;;;;;;;;;7025127;28;20562;-81
2021/06/05 14:01:32;;;;;;;8.68;4.07;;;;;;;;;;7024711;28;20047;-81
2021/06/05 14:04:52;;;;;;;7.97;3.83;;;;;;;;;;7024644;28;20480;-81
2021/06/05 14:08:13;;;;;;;20.92;5.13;;;;;;;;;;7024564;28;20762;-81
2021/06/05 14:11:34;;;;;;;5.97;3.92;;;;;;;;;;7024450;28;20048;-81
2021/06/05 14:14:55;;;;;;;13.23;3.78;;;;;;;;;;7024654;28;20047;-81
2021/06/05 14:18:18;;;;;;;6.63;3.38;;;;;;;;;;7024484;28;20044;-81
2021/06/05 14:21:39;;;;;;;6.35;3.20;;;;;;;;;;7024216;28;20048;-81
2021/06/05 14:24:59;;;;;;;6.32;3.67;;;;;;;;;;7024280;28;20134;-81
2021/06/05 14:28:23;;;;;;;9.23;3.80;;;;;;;;;;7024553;28;20110;-81
2021/06/05 14:31:43;;;;;;;8.30;4.15;;;;;;;;;;7005704;28;20048;-81
2021/06/05 14:35:04;;;;;;;5.38;3.25;;;;;;;;;;7024327;28;20106;-81
2021/06/05 14:38:26;;;;;;;6.82;3.50;;;;;;;;;;7005390;28;20052;-81
2021/06/05 14:41:52;;;;;;;6.32;3.63;;;;;;;;;;7006547;28;20052;-81
2021/06/05 14:45:15;;;;;;;4.00;3.20;;;;;;;;;;7024116;28;20051;-82
2021/06/05 14:48:36;;;;;;;6.90;3.50;;;;;;;;;;7023752;28;20067;-80
2021/06/05 14:51:56;;;;;;;6.95;3.25;;;;;;;;;;7023496;28;20040;-81
2021/06/05 14:55:18;;;;;;;4.82;3.42;;;;;;;;;;7024056;28;20063;-81
2021/06/05 14:58:39;;;;;;;5.13;3.30;;;;;;;;;;7005339;28;20051;-81
2021/06/05 15:01:59;;;;;;;8.38;3.33;;;;;;;;;;7023545;28;20076;-80
2021/06/05 15:05:23;;;;;;;4.78;3.20;;;;;;;;;;7023714;28;20071;-81
2021/06/05 15:08:44;;;;;;;9.52;3.45;;;;;;;;;;7023458;28;20048;-81
2021/06/05 15:12:05;;;;;;;4.40;2.92;;;;;;;;;;7023836;28;20048;-81
2021/06/05 15:15:27;;;;;;;7.20;3.53;;;;;;;;;;7004078;28;20531;-81
2021/06/05 15:18:48;;;;;;;4.10;2.90;;;;;;;;;;6987359;28;20044;-81
2021/06/05 15:22:09;;;;;;;5.93;3.30;;;;;;;;;;7023504;28;20048;-81
2021/06/05 15:25:37;;;;;;;4.28;2.80;;;;;;;;;;7023219;28;20044;-81
2021/06/05 15:28:57;;;;;;;4.90;3.35;;;;;;;;;;7022940;28;20044;-81
2021/06/05 15:32:18;;;;;;;7.60;3.08;;;;;;;;;;7022966;28;20472;-81
2021/06/05 15:35:39;;;;;;;7.88;3.15;;;;;;;;;;7026036;28;20520;-81
2021/06/05 15:39:00;;;;;;;5.25;2.88;;;;;;;;;;7027734;28;20051;-81
2021/06/05 15:42:21;;;;;;;8.65;2.97;;;;;;;;;;7028044;28;20071;-81
2021/06/05 15:45:45;;;;;;;5.60;3.00;;;;;;;;;;7028370;28;20079;-81
2021/06/05 15:49:06;;;;;;;4.80;2.88;;;;;;;;;;7008954;28;20071;-81
2021/06/05 15:52:26;;;;;;;4.00;2.75;;;;;;;;;;7027417;28;20051;-81
2021/06/05 15:55:47;;;;;;;3.50;3.17;;;;;;;;;;7009519;28;20158;-81
2021/06/05 15:59:08;;;;;;;7.43;3.20;;;;;;;;;;7027276;28;20052;-81
2021/06/05 16:02:28;;;;;;;6.07;3.33;;;;;;;;;;7027468;28;20044;-81
2021/06/05 16:05:49;;;;;;;5.03;2.95;;;;;;;;;;7027421;28;20135;-81
2021/06/05 16:09:11;;;;;;;5.45;3.20;;;;;;;;;;7026984;28;20083;-81
2021/06/05 16:12:31;;;;;;;5.07;2.88;;;;;;;;;;6996566;28;20358;-81
2021/06/05 16:15:59;;;;;;;7.57;2.90;;;;;;;;;;7007357;28;20546;-80
2021/06/05 16:19:20;;;;;;;5.43;2.95;;;;;;;;;;7033851;28;20054;-80
2021/06/05 16:22:41;;;;;;;3.20;2.58;;;;;;;;;;7026955;28;20040;-80
2021/06/05 16:26:01;;;;;;;4.40;2.50;;;;;;;;;;7026138;28;20071;-81
2021/06/05 16:29:23;;;;;;;4.93;2.70;;;;;;;;;;7025279;28;20051;-83
2021/06/05 16:32:43;;;;;;;3.80;2.75;;;;;;;;;;7025754;28;20047;-80
2021/06/05 16:36:05;;;;;;;5.43;2.50;;;;;;;;;;7021593;28;20044;-81
2021/06/05 16:39:26;;;;;;;5.25;2.50;;;;;;;;;;7005750;28;20442;-81
2021/06/05 16:42:46;;;;;;;6.28;2.50;;;;;;;;;;7023817;28;20476;-80
2021/06/05 16:46:08;;;;;;;8.88;2.85;;;;;;;;;;7023781;28;20040;-81
2021/06/05 16:49:28;;;;;;;7.85;2.45;;;;;;;;;;7027199;28;20469;-82
2021/06/05 16:52:49;;;;;;;4.18;2.30;;;;;;;;;;7020851;28;20477;-81
2021/06/05 16:56:12;;;;;;;4.78;2.60;;;;;;;;;;7025353;28;20051;-81
2021/06/05 16:59:33;;;;;;;2.85;2.58;;;;;;;;;;7024247;28;20128;-81
2021/06/05 17:02:55;;;;;;;4.60;2.67;;;;;;;;;;7023983;28;20126;-81
2021/06/05 17:06:16;;;;;;;3.78;2.70;;;;;;;;;;7012966;28;20055;-82
2021/06/05 17:09:37;;;;;;;3.60;2.20;;;;;;;;;;7021808;28;20048;-82
2021/06/05 17:13:00;;;;;;;3.50;2.40;;;;;;;;;;7023727;28;20048;-81
2021/06/05 17:16:20;;;;;;;4.25;2.70;;;;;;;;;;7005572;28;20385;-82
2021/06/05 17:19:41;;;;;;;3.85;2.63;;;;;;;;;;7023996;28;20504;-80
2021/06/05 17:23:01;;;;;;;2.42;2.17;;;;;;;;;;7022385;28;20182;-82
2021/06/05 17:26:24;;;;;;;7.03;2.20;;;;;;;;;;7021201;28;20075;-82
2021/06/05 17:29:47;;;;;;;4.18;2.45;;;;;;;;;;7022826;28;20036;-82
2021/06/05 17:33:08;;;;;;;4.03;2.30;;;;;;;;;;7021000;28;20048;-82
2021/06/05 17:36:29;;;;;;;2.42;2.20;;;;;;;;;;7004185;28;20040;-78
2021/06/05 17:39:49;;;;;;;8.07;2.35;;;;;;;;;;7021536;28;20080;-79
2021/06/05 17:43:12;;;;;;;3.72;2.25;;;;;;;;;;7020222;28;20051;-81
2021/06/05 17:46:33;;;;;;;6.93;2.55;;;;;;;;;;7022616;28;20048;-79
2021/06/05 17:49:54;;;;;;;4.03;2.42;;;;;;;;;;7021990;28;20048;-79
2021/06/05 17:53:16;;;;;;;6.10;2.65;;;;;;;;;;7020623;28;20516;-79
2021/06/05 17:56:36;;;;;;;5.75;2.50;;;;;;;;;;6986725;28;20047;-79
2021/06/05 17:59:57;;;;;;;5.60;2.42;;;;;;;;;;7024142;28;20046;-79
2021/06/05 18:03:21;;;;;;;2.50;2.08;;;;;;;;;;7023987;28;20044;-81
2021/06/05 18:06:43;;;;;;;4.00;2.20;;;;;;;;;;7019730;28;20040;-80
2021/06/05 18:10:06;;;;;;;3.00;2.15;;;;;;;;;;7003362;28;20040;-80
2021/06/05 18:13:27;;;;;;;4.15;2.25;;;;;;;;;;6999495;28;20495;-81
2021/06/05 18:16:50;;;;;;;6.00;2.40;;;;;;;;;;7023597;28;20048;-81
2021/06/05 18:20:15;;;;;;;6.68;2.15;;;;;;;;;;7005793;28;20048;-81
2021/06/05 18:23:37;;;;;;;3.28;2.20;;;;;;;;;;7004409;28;20121;-81
2021/06/05 18:26:59;;;;;;;6.80;2.40;;;;;;;;;;7005771;28;20048;-80
2021/06/05 18:30:30;;;;;;;3.05;2.38;;;;;;;;;;7023752;28;20044;-81
2021/06/05 18:33:52;;;;;;;3.50;2.00;;;;;;;;;;7006086;28;20044;-81
2021/06/05 18:37:14;;;;;;;6.55;2.47;;;;;;;;;;7023419;28;20055;-80
2021/06/05 18:40:35;;;;;;;5.75;2.55;;;;;;;;;;7006031;28;20486;-81
2021/06/05 18:47:36;;;;;;;6.28;2.47;;;;;;;;;;6910661;28;20144;-81
2021/06/05 18:51:01;;;;;;;3.22;2.15;;;;;;;;;;6911318;28;20108;-80
2021/06/05 18:54:25;;;;;;;5.40;2.25;;;;;;;;;;6893944;28;20535;-82
2021/06/05 18:57:45;;;;;;;4.50;2.00;;;;;;;;;;6908271;28;20077;-80
2021/06/05 19:01:07;;;;;;;4.40;2.17;;;;;;;;;;6888968;28;20064;-81
2021/06/05 19:04:28;;;;;;;4.85;2.70;;;;;;;;;;6904424;28;20061;-83
2021/06/05 19:07:48;;;;;;;8.43;2.30;;;;;;;;;;6905700;28;20212;-80
2021/06/05 19:11:11;;;;;;;4.90;2.25;;;;;;;;;;6893908;28;20172;-80
2021/06/05 19:14:32;;;;;;;7.22;2.35;;;;;;;;;;6911087;28;20042;-81
2021/06/05 19:17:52;;;;;;;8.63;2.70;;;;;;;;;;6910340;28;20132;-80
2021/06/05 19:21:14;;;;;;;3.67;1.92;;;;;;;;;;6910273;28;20053;-82
2021/06/05 19:24:35;;;;;;;3.83;2.00;;;;;;;;;;6975431;28;20046;-81
2021/06/05 19:27:57;;;;;;;6.05;2.10;;;;;;;;;;7023651;28;20044;-81
2021/06/05 19:31:19;;;;;;;3.67;2.30;;;;;;;;;;7023928;28;20044;-81
2021/06/05 19:34:39;;;;;;;4.00;2.08;;;;;;;;;;7026247;28;20048;-80
2021/06/05 19:38:02;;;;;;;4.10;1.75;;;;;;;;;;7026937;28;20443;-79
2021/06/05 19:41:23;;;;;;;5.80;2.38;;;;;;;;;;7027818;28;20100;-82
2021/06/05 19:44:43;;;;;;;5.57;2.20;;;;;;;;;;7022511;28;20077;-82
2021/06/05 19:48:05;;;;;;;5.95;2.42;;;;;;;;;;7023979;28;20165;-83
2021/06/05 19:51:26;;;;;;;4.95;2.08;;;;;;;;;;7023651;28;20044;-84
2021/06/05 19:54:46;;;;;;;9.27;2.67;;;;;;;;;;6997626;28;20129;-80
2021/06/05 19:58:08;;;;;;;6.00;2.60;;;;;;;;;;7023021;28;20171;-80
2021/06/05 20:01:30;;;;;;;6.68;2.55;;;;;;;;;;7022268;28;20139;-79
2021/06/05 20:04:50;;;;;;;5.90;2.15;;;;;;;;;;7021294;28;20075;-80
2021/06/05 20:08:11;;;;;;;5.18;2.05;;;;;;;;;;7005734;28;20044;-80
2021/06/05 20:11:34;;;;;;;5.45;2.30;;;;;;;;;;7019471;28;20040;-79
2021/06/05 20:14:54;;;;;;;9.70;2.60;;;;;;;;;;7026624;28;20064;-79
2021/06/05 20:18:16;;;;;;;3.80;2.13;;;;;;;;;;7026867;28;20055;-79
2021/06/05 20:21:41;;;;;;;5.30;2.35;;;;;;;;;;7026019;28;20044;-79
2021/06/05 20:25:06;;;;;;;6.10;2.15;;;;;;;;;;7007041;28;20074;-79
2021/06/05 20:28:27;;;;;;;6.57;2.30;;;;;;;;;;7008335;28;20054;-79
2021/06/05 20:31:48;;;;;;;10.15;2.38;;;;;;;;;;7027191;28;20093;-80
2021/06/05 20:35:10;;;;;;;3.75;2.20;;;;;;;;;;7026649;28;20048;-79
2021/06/05 20:38:31;;;;;;;5.20;2.50;;;;;;;;;;7026340;28;20051;-79
2021/06/05 20:41:51;;;;;;;6.00;2.22;;;;;;;;;;7026359;28;20052;-80
2021/06/05 20:45:14;;;;;;;3.45;2.20;;;;;;;;;;7026852;28;20048;-80
2021/06/05 20:48:40;;;;;;;6.32;2.35;;;;;;;;;;7025146;28;20048;-80
2021/06/05 20:52:00;;;;;;;6.53;2.78;;;;;;;;;;7026457;28;20040;-79
2021/06/05 20:55:23;;;;;;;7.53;2.85;;;;;;;;;;7025961;28;20407;-79
2021/06/05 20:58:44;;;;;;;5.15;2.50;;;;;;;;;;7026106;28;20126;-78
2021/06/05 21:02:05;;;;;;;11.63;3.00;;;;;;;;;;7025556;28;20040;-79
2021/06/05 21:05:26;;;;;;;7.65;2.72;;;;;;;;;;7026088;28;20063;-79
2021/06/05 21:08:47;;;;;;;4.28;2.60;;;;;;;;;;7025315;28;20686;-80
2021/06/05 21:12:08;;;;;;;5.72;2.35;;;;;;;;;;7025509;28;20059;-78
2021/06/05 21:15:29;;;;;;;5.15;2.70;;;;;;;;;;7024769;28;20398;-80
2021/06/05 21:18:51;;;;;;;3.72;2.42;;;;;;;;;;7025392;28;20050;-80
2021/06/05 21:22:11;;;;;;;6.85;2.92;;;;;;;;;;7025953;28;20131;-80
2021/06/05 21:25:32;;;;;;;5.80;2.40;;;;;;;;;;7025414;28;20036;-79
2021/06/05 21:28:52;;;;;;;4.32;2.72;;;;;;;;;;7025609;28;20091;-80
2021/06/05 21:32:13;;;;;;;5.85;2.60;;;;;;;;;;7023855;28;20121;-80
2021/06/05 21:35:34;;;;;;;4.85;2.72;;;;;;;;;;7024056;28;20528;-80
2021/06/05 21:38:54;;;;;;;5.30;2.78;;;;;;;;;;7024836;28;20105;-80
2021/06/05 21:42:15;;;;;;;4.65;2.40;;;;;;;;;;7025387;28;20055;-80
2021/06/05 21:45:37;;;;;;;4.22;2.75;;;;;;;;;;7006477;28;20062;-79
2021/06/05 21:48:58;;;;;;;4.95;2.28;;;;;;;;;;7020544;28;20127;-80
2021/06/05 21:52:18;;;;;;;4.75;2.80;;;;;;;;;;7011736;28;20047;-79
2021/06/05 21:55:39;;;;;;;3.33;2.80;;;;;;;;;;7003583;28;20428;-79
2021/06/05 21:58:59;;;;;;;6.18;2.85;;;;;;;;;;7004969;28;20451;-79
2021/06/05 22:02:20;;;;;;;5.78;2.60;;;;;;;;;;7023409;28;20050;-79
2021/06/05 22:05:47;;;;;;;3.88;3.00;;;;;;;;;;7024180;28;20040;-79
2021/06/05 22:09:10;;;;;;;3.65;2.58;;;;;;;;;;7024689;28;20057;-79
2021/06/05 22:12:30;;;;;;;3.35;2.75;;;;;;;;;;7020782;28;20054;-79
2021/06/05 22:15:52;;;;;;;3.85;2.20;;;;;;;;;;7023790;28;20040;-79
2021/06/05 22:19:13;;;;;;;4.90;2.95;;;;;;;;;;7022474;28;20055;-79
2021/06/05 22:22:35;;;;;;;3.65;2.70;;;;;;;;;;7023502;28;20067;-78
2021/06/05 22:25:55;;;;;;;4.95;2.90;;;;;;;;;;7017767;28;20128;-79
2021/06/05 22:29:20;;;;;;;3.97;3.03;;;;;;;;;;7021696;28;20052;-79
2021/06/05 22:32:40;;;;;;;5.25;2.78;;;;;;;;;;7003654;28;20036;-77
2021/06/05 22:36:01;;;;;;;4.03;2.80;;;;;;;;;;7022005;28;20142;-79
2021/06/05 22:39:21;;;;;;;5.82;2.67;;;;;;;;;;7022165;28;20087;-79
2021/06/05 22:42:42;;;;;;;4.63;3.17;;;;;;;;;;7008186;28;20040;-77
2021/06/05 22:46:04;;;;;;;3.38;2.70;;;;;;;;;;7031384;28;20051;-77
2021/06/05 22:49:26;;;;;;;8.23;3.05;;;;;;;;;;7021242;28;20047;-77
2021/06/05 22:52:46;;;;;;;4.97;3.00;;;;;;;;;;7023334;28;20559;-80
2021/06/05 22:56:08;;;;;;;4.28;2.50;;;;;;;;;;7023422;28;20040;-80
2021/06/05 22:59:29;;;;;;;6.38;2.80;;;;;;;;;;7021859;28;20505;-78
2021/06/05 23:02:49;;;;;;;5.18;2.53;;;;;;;;;;7002415;28;20048;-78
2021/06/05 23:09:53;;;;;;;2.85;2.40;;;;;;;;;;6937607;28;20652;-79
2021/06/05 23:13:14;;;;;;;4.13;2.83;;;;;;;;;;6935178;28;20636;-78
2021/06/05 23:16:35;;;;;;;4.00;2.78;;;;;;;;;;6935595;28;20085;-78
2021/06/05 23:19:55;;;;;;;5.88;3.03;;;;;;;;;;6925761;28;20068;-77
2021/06/05 23:23:17;;;;;;;3.03;2.58;;;;;;;;;;6936950;28;20103;-77
2021/06/05 23:26:38;;;;;;;10.27;2.88;;;;;;;;;;6936461;28;20057;-77
2021/06/05 23:29:59;;;;;;;4.18;2.78;;;;;;;;;;6937117;28;20049;-77
2021/06/05 23:33:22;;;;;;;2.90;2.50;;;;;;;;;;6936987;28;20142;-77
2021/06/05 23:36:43;;;;;;;7.57;2.63;;;;;;;;;;6936761;28;20843;-76
2021/06/05 23:40:05;;;;;;;6.47;3.00;;;;;;;;;;6936950;28;20506;-76
2021/06/05 23:43:26;;;;;;;5.28;2.90;;;;;;;;;;6936259;28;20053;-78
2021/06/05 23:46:46;;;;;;;4.00;2.65;;;;;;;;;;6986774;28;20048;-77
2021/06/05 23:50:14;;;;;;;4.80;2.58;;;;;;;;;;7023020;28;20044;-78
2021/06/05 23:53:35;;;;;;;3.72;2.63;;;;;;;;;;7022984;28;20048;-77
2021/06/05 23:56:55;;;;;;;6.20;2.88;;;;;;;;;;7025841;28;20148;-78
